Time;durP1;ratioP1;P1;durP2;ratioP2;P2;SDS_P1;SDS_P2;PMS_P1;PMS_P2;Temp;Humidity;BMP_temperature;BMP_pressure;BME280_temperature;BME280_humidity;BME280_pressure;Samples;Min_cycle;Max_cycle;Signal;HPM_P1;HPM_P2
2022/05/15 00:00:56;;;;;;;15.63;4.72;;;11.00;99.90;;;;;;5083436;28;21759;-64
2022/05/15 00:03:23;;;;;;;16.55;3.90;;;11.00;99.90;;;;;;5063540;28;20040;-64
2022/05/15 00:05:57;;;;;;;15.40;3.88;;;11.00;99.90;;;;;;5081976;28;20474;-64
2022/05/15 00:08:25;;;;;;;16.50;4.30;;;11.00;99.90;;;;;;5075162;28;20048;-64
2022/05/15 00:10:52;;;;;;;17.83;4.55;;;11.00;99.90;;;;;;5053051;28;20056;-64
2022/05/15 00:13:20;;;;;;;17.13;4.28;;;11.00;99.90;;;;;;5068215;28;20568;-64
2022/05/15 00:15:49;;;;;;;20.45;4.80;;;11.00;99.90;;;;;;5043203;28;20499;-64
2022/05/15 00:18:16;;;;;;;19.40;4.72;;;10.90;99.90;;;;;;5046739;28;20083;-63
2022/05/15 00:20:42;;;;;;;16.98;4.20;;;10.90;99.90;;;;;;5049829;28;20033;-64
2022/05/15 00:23:10;;;;;;;20.42;4.80;;;10.90;99.90;;;;;;5033753;28;20063;-64
2022/05/15 00:25:36;;;;;;;20.85;4.47;;;10.80;99.90;;;;;;5058901;28;20119;-65
2022/05/15 00:28:02;;;;;;;18.52;5.55;;;10.80;99.90;;;;;;5032728;28;20090;-63
2022/05/15 00:30:28;;;;;;;17.45;4.40;;;10.80;99.90;;;;;;5051657;28;20076;-64
2022/05/15 00:32:54;;;;;;;21.17;5.30;;;10.70;99.90;;;;;;5068683;28;20079;-64
2022/05/15 00:35:21;;;;;;;19.90;5.03;;;10.70;99.90;;;;;;5051007;28;20073;-65
2022/05/15 00:37:47;;;;;;;18.17;4.35;;;10.70;99.90;;;;;;5049504;28;20028;-64
2022/05/15 00:40:15;;;;;;;15.55;4.13;;;10.60;99.90;;;;;;5036959;28;20483;-63
2022/05/15 00:42:40;;;;;;;23.08;4.15;;;10.60;99.90;;;;;;5057055;28;20500;-65
2022/05/15 00:45:07;;;;;;;18.80;4.82;;;10.60;99.90;;;;;;5040035;28;20083;-64
2022/05/15 00:47:34;;;;;;;13.90;4.53;;;10.60;99.90;;;;;;5070432;28;20059;-64
2022/05/15 00:50:06;;;;;;;18.65;4.28;;;10.50;99.90;;;;;;5051237;28;20041;-64
2022/05/15 00:52:35;;;;;;;16.60;4.43;;;10.50;99.90;;;;;;5069905;28;20048;-63
2022/05/15 00:55:10;;;;;;;16.90;3.80;;;10.50;99.90;;;;;;5039934;28;20037;-64
2022/05/15 00:57:43;;;;;;;20.90;4.90;;;10.50;99.90;;;;;;5069152;28;20041;-64
2022/05/15 01:00:14;;;;;;;17.42;4.38;;;10.50;99.90;;;;;;5037386;28;20040;-64
2022/05/15 01:03:05;;;;;;;16.27;4.53;;;10.50;99.90;;;;;;5038056;28;20392;-63
2022/05/15 01:05:34;;;;;;;19.60;5.07;;;10.40;99.90;;;;;;5033146;28;20139;-64
2022/05/15 01:07:59;;;;;;;25.33;5.20;;;10.40;99.90;;;;;;5053841;28;20116;-65
2022/05/15 01:10:25;;;;;;;16.00;4.22;;;10.40;99.90;;;;;;5071103;28;20447;-64
2022/05/15 01:12:52;;;;;;;17.80;4.13;;;10.40;99.90;;;;;;5066767;28;20418;-64
2022/05/15 01:15:21;;;;;;;21.67;6.25;;;10.30;99.90;;;;;;5046270;28;20060;-64
2022/05/15 01:17:47;;;;;;;18.73;4.53;;;10.30;99.90;;;;;;5056056;28;20691;-65
2022/05/15 01:20:16;;;;;;;17.02;4.65;;;10.30;99.90;;;;;;5054955;28;20040;-64
2022/05/15 01:22:42;;;;;;;16.73;3.75;;;10.20;99.90;;;;;;5060416;28;20048;-63
2022/05/15 01:25:21;;;;;;;17.60;4.38;;;10.20;99.90;;;;;;5065422;28;20048;-64
2022/05/15 01:27:59;;;;;;;15.50;4.10;;;10.10;99.90;;;;;;5078600;28;20050;-64
2022/05/15 01:30:25;;;;;;;15.85;4.53;;;10.10;99.90;;;;;;5077268;28;20040;-63
2022/05/15 01:32:51;;;;;;;16.92;4.18;;;10.00;99.90;;;;;;5056517;28;20053;-65
2022/05/15 01:35:17;;;;;;;17.98;4.63;;;10.00;99.90;;;;;;5067381;28;20139;-64
2022/05/15 01:37:43;;;;;;;16.90;5.00;;;9.90;99.90;;;;;;5061603;28;20115;-64
2022/05/15 01:40:09;;;;;;;17.30;4.63;;;9.90;99.90;;;;;;5077389;28;20116;-63
2022/05/15 01:42:36;;;;;;;14.60;4.47;;;10.00;99.90;;;;;;5071111;28;20048;-64
2022/05/15 01:45:04;;;;;;;20.75;4.60;;;9.90;99.90;;;;;;5091127;28;20040;-64
2022/05/15 01:47:30;;;;;;;15.82;4.10;;;9.90;99.90;;;;;;5062224;28;20036;-64
2022/05/15 01:49:55;;;;;;;13.88;4.38;;;9.90;99.90;;;;;;5078481;28;20043;-65
2022/05/15 01:52:21;;;;;;;14.82;3.85;;;9.90;99.90;;;;;;5072969;28;20044;-63
2022/05/15 01:54:46;;;;;;;16.17;4.00;;;9.90;99.90;;;;;;5091057;28;20040;-63
2022/05/15 01:57:12;;;;;;;15.88;4.28;;;9.80;99.90;;;;;;5079864;28;20039;-63
2022/05/15 01:59:38;;;;;;;15.52;4.10;;;9.80;99.90;;;;;;5058673;28;20044;-63
2022/05/15 02:02:06;;;;;;;15.27;4.43;;;9.80;99.90;;;;;;5063572;28;20040;-63
2022/05/15 02:04:31;;;;;;;21.50;4.45;;;9.80;99.90;;;;;;5084371;28;20040;-63
2022/05/15 02:06:57;;;;;;;15.52;4.90;;;9.80;99.90;;;;;;5072574;28;20040;-65
2022/05/15 02:09:23;;;;;;;14.27;3.67;;;9.80;99.90;;;;;;5063519;28;20042;-64
2022/05/15 02:11:48;;;;;;;16.40;4.60;;;9.80;99.90;;;;;;5060187;28;20040;-63
2022/05/15 02:14:14;;;;;;;13.48;4.10;;;9.70;99.90;;;;;;5084772;28;20368;-63
2022/05/15 02:16:40;;;;;;;18.73;4.70;;;9.70;99.90;;;;;;5054768;28;20036;-64
2022/05/15 02:19:06;;;;;;;15.18;4.30;;;9.70;99.90;;;;;;5045423;28;20450;-64
2022/05/15 02:21:32;;;;;;;17.92;4.40;;;9.70;99.90;;;;;;5040276;28;20132;-64
2022/05/15 02:23:58;;;;;;;14.80;4.13;;;9.60;99.90;;;;;;5051218;28;20048;-64
2022/05/15 02:26:24;;;;;;;17.10;4.45;;;9.60;99.90;;;;;;5051546;28;20036;-63
2022/05/15 02:28:50;;;;;;;18.80;4.13;;;9.60;99.90;;;;;;5065880;28;20094;-65
2022/05/15 02:31:16;;;;;;;14.20;4.10;;;9.60;99.90;;;;;;5053477;28;20076;-65
2022/05/15 02:33:42;;;;;;;18.33;4.53;;;9.60;99.90;;;;;;5051270;28;20039;-64
2022/05/15 02:36:09;;;;;;;13.77;4.22;;;9.50;99.90;;;;;;5054906;28;20086;-64
2022/05/15 02:38:36;;;;;;;18.20;4.47;;;9.50;99.90;;;;;;5052019;28;20080;-63
2022/05/15 02:41:03;;;;;;;13.75;4.47;;;9.50;99.90;;;;;;5057106;28;20514;-64
2022/05/15 02:43:29;;;;;;;12.20;4.25;;;9.50;99.90;;;;;;5066168;28;20033;-64
2022/05/15 02:45:55;;;;;;;14.60;4.18;;;9.50;99.90;;;;;;5030077;28;20069;-63
2022/05/15 02:51:06;;;;;;;15.30;4.50;;;9.40;99.90;;;;;;5038108;28;20102;-64
2022/05/15 02:53:38;;;;;;;16.10;4.70;;;9.30;99.90;;;;;;5034010;28;20056;-65
2022/05/15 02:56:11;;;;;;;17.33;4.55;;;9.30;99.90;;;;;;5054794;28;21178;-64
2022/05/15 02:58:37;;;;;;;14.02;4.10;;;9.20;99.90;;;;;;5033609;28;20045;-63
2022/05/15 03:01:04;;;;;;;12.73;4.47;;;9.20;99.90;;;;;;5037995;28;20036;-64
2022/05/15 03:03:30;;;;;;;18.13;4.22;;;9.20;99.90;;;;;;5034776;28;20068;-64
2022/05/15 03:05:55;;;;;;;13.35;4.38;;;9.10;99.90;;;;;;5038511;28;20067;-64
2022/05/15 03:08:21;;;;;;;16.20;4.70;;;9.10;99.90;;;;;;5019866;28;20419;-64
2022/05/15 03:10:47;;;;;;;16.60;4.28;;;9.10;99.90;;;;;;5059107;28;20119;-64
2022/05/15 03:13:12;;;;;;;15.95;3.97;;;9.10;99.90;;;;;;5039967;28;20059;-64
2022/05/15 03:15:38;;;;;;;15.15;4.38;;;9.00;99.90;;;;;;5064964;28;20063;-64
2022/05/15 03:18:04;;;;;;;17.65;4.53;;;9.00;99.90;;;;;;5051204;28;20419;-63
2022/05/15 03:20:30;;;;;;;13.60;4.90;;;9.00;99.90;;;;;;5052226;28;20086;-63
2022/05/15 03:22:57;;;;;;;17.88;4.50;;;8.90;99.90;;;;;;5042945;28;20437;-63
2022/05/15 03:25:24;;;;;;;23.00;4.53;;;9.00;99.90;;;;;;5049922;28;20060;-63
2022/05/15 03:27:50;;;;;;;17.23;4.70;;;9.00;99.90;;;;;;5032565;28;20084;-65
2022/05/15 03:30:16;;;;;;;15.35;4.38;;;8.90;99.90;;;;;;5048417;28;20044;-63
2022/05/15 03:32:42;;;;;;;14.55;4.50;;;8.90;99.90;;;;;;5046703;28;20056;-63
2022/05/15 03:35:09;;;;;;;17.80;4.82;;;8.90;99.90;;;;;;5039511;28;20040;-63
2022/05/15 03:37:35;;;;;;;16.02;4.43;;;8.90;99.90;;;;;;5045701;28;20055;-62
2022/05/15 03:40:01;;;;;;;13.48;4.75;;;8.90;99.90;;;;;;5032524;28;20041;-64
2022/05/15 03:42:27;;;;;;;15.90;4.63;;;8.90;99.90;;;;;;5036836;28;20040;-63
2022/05/15 03:44:53;;;;;;;15.10;4.60;;;8.90;99.90;;;;;;5051818;28;20048;-63
2022/05/15 03:47:19;;;;;;;15.77;4.68;;;8.90;99.90;;;;;;5061295;28;20478;-64
2022/05/15 03:49:45;;;;;;;16.08;4.38;;;8.90;99.90;;;;;;5068132;28;20040;-63
2022/05/15 03:52:10;;;;;;;15.63;4.68;;;8.90;99.90;;;;;;5050129;28;20483;-65
2022/05/15 03:54:36;;;;;;;15.75;4.63;;;8.90;99.90;;;;;;5046098;28;20127;-64
2022/05/15 03:57:02;;;;;;;20.27;4.90;;;8.90;99.90;;;;;;5050086;28;20039;-63
2022/05/15 03:59:32;;;;;;;16.08;5.07;;;8.90;99.90;;;;;;5039249;28;20055;-63
2022/05/15 04:01:59;;;;;;;17.50;4.40;;;9.00;99.90;;;;;;5043308;28;20040;-63
2022/05/15 04:04:25;;;;;;;15.90;4.57;;;9.00;99.90;;;;;;5043787;28;20044;-63
2022/05/15 04:06:51;;;;;;;16.60;5.35;;;9.00;99.90;;;;;;5019883;28;20466;-64
2022/05/15 04:09:16;;;;;;;21.70;5.93;;;9.00;99.90;;;;;;5066100;28;20040;-64
2022/05/15 04:11:42;;;;;;;17.10;5.00;;;9.10;99.90;;;;;;5053387;28;20048;-63
2022/05/15 04:14:08;;;;;;;17.48;5.03;;;9.10;99.90;;;;;;5061984;28;20057;-64
2022/05/15 04:16:34;;;;;;;15.57;4.95;;;9.20;99.90;;;;;;5062839;28;20128;-63
2022/05/15 04:19:01;;;;;;;16.55;5.45;;;9.20;99.90;;;;;;5061504;28;20498;-64
2022/05/15 04:21:28;;;;;;;20.08;5.60;;;9.30;99.90;;;;;;5058341;28;20043;-64
2022/05/15 04:23:53;;;;;;;16.33;5.53;;;9.30;99.90;;;;;;5065027;28;20113;-63
2022/05/15 04:26:19;;;;;;;15.35;5.00;;;9.40;99.90;;;;;;5043017;28;20037;-63
2022/05/15 04:28:46;;;;;;;17.00;4.93;;;9.40;99.90;;;;;;5054442;28;20033;-64
2022/05/15 04:31:11;;;;;;;17.75;5.55;;;9.50;99.90;;;;;;5035352;28;20543;-63
2022/05/15 04:33:37;;;;;;;15.43;5.07;;;9.50;99.90;;;;;;5057457;28;20032;-64
2022/05/15 04:36:03;;;;;;;18.58;5.10;;;9.60;99.90;;;;;;5063073;28;20079;-63
2022/05/15 04:38:29;;;;;;;20.25;5.65;;;9.60;99.90;;;;;;5039585;28;20123;-64
2022/05/15 04:40:54;;;;;;;17.27;5.22;;;9.70;99.90;;;;;;5057987;28;20857;-64
2022/05/15 04:43:20;;;;;;;19.63;5.50;;;9.80;99.90;;;;;;5069783;28;20699;-64
2022/05/15 04:45:46;;;;;;;22.02;5.85;;;9.80;99.90;;;;;;5059570;28;20048;-64
2022/05/15 04:48:12;;;;;;;20.70;6.07;;;9.90;99.90;;;;;;5056017;28;20043;-63
2022/05/15 04:50:38;;;;;;;18.10;5.85;;;10.00;99.90;;;;;;5050718;28;20033;-63
2022/05/15 04:53:05;;;;;;;20.50;6.05;;;10.10;99.90;;;;;;5067759;28;20048;-64
2022/05/15 04:55:31;;;;;;;20.10;5.68;;;10.10;99.90;;;;;;5068950;28;20467;-64
2022/05/15 04:57:57;;;;;;;23.30;6.57;;;10.20;99.90;;;;;;5048845;28;20174;-64
2022/05/15 05:00:23;;;;;;;20.25;5.95;;;10.30;99.90;;;;;;5053504;28;20086;-64
2022/05/15 05:02:49;;;;;;;19.83;5.63;;;10.40;99.90;;;;;;5052884;28;20045;-64
2022/05/15 05:05:15;;;;;;;20.30;5.85;;;10.50;99.90;;;;;;5061168;28;20040;-65
2022/05/15 05:07:40;;;;;;;21.02;5.28;;;10.50;99.90;;;;;;5055556;28;20029;-65
2022/05/15 05:10:08;;;;;;;24.48;5.60;;;10.60;99.90;;;;;;5062767;28;20033;-65
2022/05/15 05:12:34;;;;;;;16.58;6.05;;;10.70;99.90;;;;;;5051550;28;20040;-65
2022/05/15 05:14:59;;;;;;;17.95;5.53;;;10.80;99.90;;;;;;5060840;28;20480;-65
2022/05/15 05:17:26;;;;;;;18.80;5.30;;;10.90;99.90;;;;;;5042071;28;20041;-64
2022/05/15 05:19:51;;;;;;;13.45;4.70;;;11.00;99.90;;;;;;5048429;28;20438;-65
2022/05/15 05:22:17;;;;;;;25.88;5.93;;;11.10;99.90;;;;;;5039848;28;20049;-64
2022/05/15 05:24:43;;;;;;;17.88;5.97;;;11.20;99.90;;;;;;5041360;28;20051;-64
2022/05/15 05:27:09;;;;;;;13.25;5.05;;;11.30;99.90;;;;;;5064584;28;20037;-65
2022/05/15 05:29:34;;;;;;;19.35;5.28;;;11.50;99.90;;;;;;5069562;28;20128;-64
2022/05/15 05:32:00;;;;;;;17.45;5.18;;;11.60;99.90;;;;;;5046054;28;20147;-64
2022/05/15 05:34:26;;;;;;;18.05;4.97;;;11.70;99.90;;;;;;5043788;28;20060;-65
2022/05/15 05:36:52;;;;;;;19.73;5.50;;;11.80;99.90;;;;;;5022636;28;20178;-64
2022/05/15 05:39:18;;;;;;;21.83;5.47;;;11.90;99.90;;;;;;5040784;28;20047;-64
2022/05/15 05:41:43;;;;;;;17.08;5.30;;;12.00;99.90;;;;;;5052018;28;20418;-65
2022/05/15 05:44:09;;;;;;;23.58;5.30;;;12.20;99.90;;;;;;5033743;28;20056;-64
2022/05/15 05:46:35;;;;;;;15.82;5.07;;;12.30;99.90;;;;;;5047276;28;20045;-64
2022/05/15 05:49:00;;;;;;;19.10;5.07;;;12.40;99.90;;;;;;5048633;28;20454;-64
2022/05/15 05:51:26;;;;;;;21.13;5.32;;;12.60;99.90;;;;;;5052545;28;20036;-64
2022/05/15 05:53:52;;;;;;;17.52;5.30;;;12.70;99.90;;;;;;5031373;28;20057;-65
2022/05/15 05:56:17;;;;;;;22.20;5.82;;;12.80;99.90;;;;;;5052766;28;20037;-65
2022/05/15 05:58:43;;;;;;;17.15;4.97;;;13.00;99.90;;;;;;5068779;28;20075;-65
2022/05/15 06:01:09;;;;;;;20.02;5.22;;;13.10;99.90;;;;;;5071772;28;20032;-66
2022/05/15 06:06:19;;;;;;;16.80;4.60;;;13.40;99.90;;;;;;5033608;28;20045;-64
2022/05/15 06:08:44;;;;;;;15.45;4.60;;;13.50;99.90;;;;;;5036337;28;20047;-66
2022/05/15 06:11:11;;;;;;;12.68;4.57;;;13.70;99.90;;;;;;5045584;28;20169;-65
2022/05/15 06:13:38;;;;;;;19.40;4.80;;;13.80;99.90;;;;;;5045834;28;20044;-65
2022/05/15 06:16:04;;;;;;;20.33;4.63;;;13.90;99.90;;;;;;5053735;28;20491;-65
2022/05/15 06:18:29;;;;;;;15.85;4.75;;;14.00;99.90;;;;;;5069357;28;20081;-64
2022/05/15 06:20:55;;;;;;;17.25;4.55;;;14.20;99.90;;;;;;5016381;28;20191;-64
2022/05/15 06:23:21;;;;;;;17.58;5.18;;;14.30;99.90;;;;;;5047804;28;20028;-65
2022/05/15 06:25:47;;;;;;;17.67;4.38;;;14.40;99.90;;;;;;5071037;28;20036;-65
2022/05/15 06:28:13;;;;;;;14.55;4.07;;;14.50;99.90;;;;;;5052598;28;20055;-64
2022/05/15 06:30:38;;;;;;;18.77;4.43;;;14.70;99.90;;;;;;5048583;28;20056;-65
2022/05/15 06:33:05;;;;;;;17.05;4.20;;;14.70;99.90;;;;;;5041328;28;20132;-66
2022/05/15 06:35:31;;;;;;;16.00;4.50;;;14.90;99.90;;;;;;5053788;28;20483;-64
2022/05/15 06:38:03;;;;;;;13.70;3.83;;;14.90;99.90;;;;;;5034384;28;20044;-64
2022/05/15 06:40:30;;;;;;;18.35;5.25;;;15.00;99.90;;;;;;5038496;28;20095;-66
2022/05/15 06:42:57;;;;;;;11.02;3.63;;;15.20;99.90;;;;;;5048961;28;20052;-65
2022/05/15 06:45:24;;;;;;;13.38;3.70;;;15.20;99.90;;;;;;5051844;28;20521;-65
2022/05/15 06:47:50;;;;;;;12.85;3.78;;;15.40;99.90;;;;;;5052827;28;20127;-64
2022/05/15 06:50:16;;;;;;;11.48;3.53;;;15.50;99.90;;;;;;5049447;28;20135;-64
2022/05/15 06:52:42;;;;;;;11.90;4.22;;;15.60;99.90;;;;;;5043264;28;20044;-65
2022/05/15 06:55:19;;;;;;;11.43;3.70;;;15.80;99.90;;;;;;5036190;28;20418;-64
2022/05/15 06:57:47;;;;;;;13.07;4.03;;;16.00;99.90;;;;;;5050902;28;20098;-64
2022/05/15 07:00:14;;;;;;;12.95;3.70;;;16.10;99.90;;;;;;5033707;28;20067;-65
2022/05/15 07:02:41;;;;;;;12.68;3.28;;;16.20;99.90;;;;;;5037068;28;20044;-65
2022/05/15 07:05:09;;;;;;;14.68;3.45;;;16.30;99.90;;;;;;5039201;28;20123;-65
2022/05/15 07:07:35;;;;;;;16.33;3.40;;;16.40;99.90;;;;;;5038794;28;20371;-64
2022/05/15 07:10:00;;;;;;;15.10;3.40;;;16.50;99.90;;;;;;5052179;28;20044;-64
2022/05/15 07:12:26;;;;;;;12.05;3.38;;;16.50;99.90;;;;;;5034138;28;20045;-65
2022/05/15 07:14:52;;;;;;;13.50;3.53;;;16.70;99.90;;;;;;5050357;28;20081;-65
2022/05/15 07:17:17;;;;;;;11.90;3.45;;;16.80;99.90;;;;;;5048249;28;20076;-65
2022/05/15 07:19:43;;;;;;;11.30;3.10;;;16.90;99.90;;;;;;5053103;28;20052;-65
2022/05/15 07:22:12;;;;;;;10.23;3.13;;;17.10;99.90;;;;;;5049665;28;20036;-65
2022/05/15 07:24:39;;;;;;;15.32;3.90;;;17.10;99.90;;;;;;5052629;28;20323;-65
2022/05/15 07:27:07;;;;;;;14.57;3.50;;;17.20;99.90;;;;;;5070497;28;20040;-65
2022/05/15 07:29:36;;;;;;;13.23;3.55;;;17.30;99.90;;;;;;5052509;28;20526;-65
2022/05/15 07:32:06;;;;;;;13.57;3.72;;;17.40;99.90;;;;;;5062429;28;20119;-65
2022/05/15 07:34:32;;;;;;;12.68;3.60;;;17.50;99.90;;;;;;5056393;28;20045;-65
2022/05/15 07:36:58;;;;;;;10.57;4.00;;;17.70;99.90;;;;;;5051591;28;20045;-64
2022/05/15 07:39:24;;;;;;;11.38;3.03;;;17.80;99.90;;;;;;5032064;28;20045;-64
2022/05/15 07:41:50;;;;;;;11.90;3.75;;;18.00;99.90;;;;;;5051884;28;20095;-65
2022/05/15 07:44:17;;;;;;;10.93;3.35;;;18.10;99.90;;;;;;5054818;28;20075;-65
2022/05/15 07:46:43;;;;;;;14.10;3.60;;;18.30;99.90;;;;;;5050174;28;20051;-65
2022/05/15 07:49:09;;;;;;;9.05;3.10;;;18.50;99.90;;;;;;5034700;28;20049;-65
2022/05/15 07:51:37;;;;;;;12.82;3.47;;;18.50;99.90;;;;;;5038087;28;20048;-65
2022/05/15 07:54:02;;;;;;;12.40;2.85;;;18.60;99.90;;;;;;5037121;28;20039;-65
2022/05/15 07:56:28;;;;;;;12.85;3.60;;;18.70;99.90;;;;;;5049800;28;20441;-65
2022/05/15 07:58:54;;;;;;;10.80;2.78;;;18.70;99.90;;;;;;5031839;28;20044;-65
2022/05/15 08:01:19;;;;;;;12.15;3.33;;;18.90;99.90;;;;;;5046135;28;20046;-65
2022/05/15 08:03:46;;;;;;;13.90;3.72;;;19.00;99.90;;;;;;5057793;28;20462;-64
2022/05/15 08:08:59;;;;;;;9.43;3.10;;;19.20;99.90;;;;;;5050462;28;20075;-65
2022/05/15 08:11:28;;;;;;;10.50;2.50;;;19.40;99.90;;;;;;5069381;28;20047;-64
2022/05/15 08:13:55;;;;;;;14.90;3.15;;;19.50;99.90;;;;;;5069016;28;20048;-65
2022/05/15 08:16:21;;;;;;;12.30;3.03;;;19.70;99.90;;;;;;5069460;28;20052;-65
2022/05/15 08:24:14;;;;;;;13.63;2.95;;;20.00;99.40;;;;;;5068022;28;20110;-65
2022/05/15 08:26:40;;;;;;;14.93;3.33;;;20.10;99.10;;;;;;5066178;28;20033;-65
2022/05/15 08:29:07;;;;;;;11.50;3.28;;;20.20;99.40;;;;;;5051910;28;20044;-65
2022/05/15 08:31:33;;;;;;;11.35;3.22;;;20.40;99.30;;;;;;5031147;28;20095;-65
2022/05/15 08:33:59;;;;;;;11.82;3.20;;;20.50;99.20;;;;;;5052668;28;20035;-66
2022/05/15 08:36:24;;;;;;;12.73;3.60;;;20.60;99.30;;;;;;5051379;28;20475;-65
2022/05/15 08:38:50;;;;;;;11.55;3.55;;;20.80;98.70;;;;;;5051125;28;20453;-64
2022/05/15 08:41:31;;;;;;;12.43;3.10;;;20.90;98.30;;;;;;5067495;28;20028;-66
2022/05/15 08:43:59;;;;;;;10.95;3.10;;;21.00;97.90;;;;;;5051435;28;20135;-64
2022/05/15 08:46:39;;;;;;;13.75;3.38;;;21.10;97.90;;;;;;5051324;28;20063;-65
2022/05/15 08:49:34;;;;;;;12.82;3.22;;;21.20;97.30;;;;;;5069712;28;20467;-65
2022/05/15 08:52:07;;;;;;;12.93;3.28;;;21.30;97.70;;;;;;5057999;28;20643;-65
2022/05/15 08:54:37;;;;;;;11.77;3.55;;;21.40;97.70;;;;;;5053112;28;20041;-64
2022/05/15 08:57:04;;;;;;;13.82;4.07;;;21.60;97.50;;;;;;5053160;28;20151;-65
2022/05/15 08:59:44;;;;;;;14.77;3.83;;;21.70;97.10;;;;;;5038098;28;20048;-65
2022/05/15 09:02:11;;;;;;;14.73;3.20;;;21.80;96.40;;;;;;5055434;28;20441;-65
2022/05/15 09:04:38;;;;;;;15.57;3.65;;;21.90;96.70;;;;;;5071931;28;20119;-63
2022/05/15 09:07:27;;;;;;;8.75;3.13;;;22.00;96.70;;;;;;5035690;28;20056;-65
2022/05/15 09:10:20;;;;;;;15.02;3.15;;;22.00;96.30;;;;;;4938306;28;22221;-65
2022/05/15 09:12:54;;;;;;;12.63;4.05;;;22.20;96.30;;;;;;4954425;28;20117;-65
2022/05/15 09:15:24;;;;;;;13.98;4.15;;;22.40;96.40;;;;;;4986436;28;20070;-66
2022/05/15 09:18:00;;;;;;;13.27;3.22;;;22.60;96.00;;;;;;4974641;28;20050;-65
2022/05/15 09:20:26;;;;;;;13.73;3.60;;;22.70;95.50;;;;;;4990338;28;20444;-65
2022/05/15 09:23:24;;;;;;;11.93;3.25;;;22.80;95.30;;;;;;4961842;28;20046;-65
2022/05/15 09:25:58;;;;;;;12.32;2.90;;;22.90;95.10;;;;;;4958296;28;20054;-65
2022/05/15 09:28:27;;;;;;;11.48;3.25;;;22.90;95.00;;;;;;4960328;28;20101;-65
2022/05/15 09:30:55;;;;;;;13.05;3.65;;;23.00;95.10;;;;;;4971562;28;20527;-65
2022/05/15 09:33:23;;;;;;;15.50;3.92;;;23.20;94.80;;;;;;4960603;28;20058;-66
2022/05/15 09:35:49;;;;;;;13.93;3.22;;;23.30;94.10;;;;;;4974223;28;20046;-66
2022/05/15 09:38:27;;;;;;;13.30;3.67;;;23.40;94.00;;;;;;4961468;28;20051;-65
2022/05/15 09:43:55;;;;;;;;;;;23.60;94.00;;;;;;4965766;28;20894;-65
2022/05/15 09:46:24;;;;;;;13.48;3.42;;;23.70;94.10;;;;;;4996445;28;19963;-65
2022/05/15 09:49:01;;;;;;;12.35;3.38;;;23.80;93.20;;;;;;5074135;28;20483;-66
2022/05/15 09:51:29;;;;;;;13.80;3.67;;;23.90;93.10;;;;;;5073900;28;20051;-64
2022/05/15 09:53:57;;;;;;;10.55;2.95;;;23.90;92.80;;;;;;5082498;28;20036;-64
2022/05/15 09:56:32;;;;;;;15.95;3.40;;;24.00;92.50;;;;;;5071540;28;20060;-67
2022/05/15 09:59:05;;;;;;;12.98;3.63;;;24.20;92.10;;;;;;5066112;28;20040;-65
2022/05/15 10:01:35;;;;;;;14.60;3.88;;;24.20;92.10;;;;;;5059911;28;20040;-65
2022/05/15 10:04:04;;;;;;;14.80;3.17;;;24.40;92.70;;;;;;5058886;28;20035;-66
2022/05/15 10:06:33;;;;;;;14.77;3.60;;;24.60;92.80;;;;;;5059926;28;20032;-68
2022/05/15 10:09:09;;;;;;;12.65;2.65;;;24.70;92.50;;;;;;5056836;28;20463;-66
2022/05/15 10:11:38;;;;;;;15.77;3.28;;;24.80;90.90;;;;;;5053560;28;20083;-66
2022/05/15 10:14:06;;;;;;;12.35;3.20;;;24.70;89.60;;;;;;5063349;28;20094;-66
2022/05/15 10:16:47;;;;;;;14.38;3.15;;;24.70;90.80;;;;;;5062038;28;20352;-66
2022/05/15 10:19:21;;;;;;;13.67;3.20;;;24.60;90.30;;;;;;5055115;28;20047;-66
2022/05/15 10:21:57;;;;;;;11.93;3.53;;;24.50;90.70;;;;;;5073587;28;20068;-65
2022/05/15 10:24:28;;;;;;;12.98;3.90;;;24.70;90.70;;;;;;5057688;28;20040;-64
2022/05/15 10:27:04;;;;;;;13.73;3.00;;;24.80;90.30;;;;;;5080413;28;20079;-66
2022/05/15 10:29:46;;;;;;;11.07;3.17;;;24.70;90.30;;;;;;5053203;28;20040;-65
2022/05/15 10:32:14;;;;;;;;;;;24.80;89.80;;;;;;5054913;28;20044;-66
2022/05/15 10:34:41;;;;;;;13.88;3.47;;;25.00;90.60;;;;;;5060103;28;20279;-65
2022/05/15 10:37:35;;;;;;;11.07;3.20;;;25.00;90.10;;;;;;5071530;28;20032;-65
2022/05/15 10:40:26;;;;;;;11.77;3.60;;;25.20;89.10;;;;;;5048535;28;20072;-65
2022/05/15 10:43:14;;;;;;;10.55;3.20;;;25.40;89.20;;;;;;5085230;28;20111;-66
2022/05/15 10:45:56;;;;;;;13.38;3.25;;;25.60;90.00;;;;;;5070451;28;20048;-66
2022/05/15 10:48:22;;;;;;;;;;;25.80;88.60;;;;;;5071317;28;20044;-65
2022/05/15 10:51:15;;;;;;;12.95;3.20;;;25.80;86.90;;;;;;5053009;28;19923;-65
2022/05/15 10:59:53;;;;;;;11.60;3.28;;;25.70;84.10;;;;;;5069523;28;20456;-66
2022/05/15 11:02:31;;;;;;;12.15;3.30;;;25.60;84.30;;;;;;5078330;28;20083;-66
2022/05/15 11:05:19;;;;;;;10.70;2.97;;;25.60;83.80;;;;;;5059711;28;20089;-65
2022/05/15 11:08:18;;;;;;;10.70;3.60;;;25.50;84.10;;;;;;5062817;28;20494;-65
2022/05/15 11:10:50;;;;;;;10.60;3.15;;;25.50;84.20;;;;;;5056785;28;20040;-66
2022/05/15 11:13:34;;;;;;;;;;;25.60;82.70;;;;;;5063762;28;20147;-66
2022/05/15 11:17:00;;;;;;;11.15;3.33;;;25.50;83.30;;;;;;5057103;28;19920;-66
2022/05/15 11:19:37;;;;;;;10.73;3.75;;;25.30;81.50;;;;;;4962195;28;20481;-65
2022/05/15 11:22:19;;;;;;;8.70;2.88;;;25.20;81.10;;;;;;4969754;28;20118;-66
2022/05/15 11:24:59;;;;;;;12.13;3.33;;;25.00;80.10;;;;;;4969773;28;20081;-65
2022/05/15 11:27:43;;;;;;;14.23;3.10;;;24.70;79.60;;;;;;4968677;28;20061;-65
2022/05/15 11:30:14;;;;;;;8.85;2.60;;;24.60;79.80;;;;;;4972628;28;20077;-66
2022/05/15 11:32:45;;;;;;;13.52;3.67;;;24.60;80.20;;;;;;4982197;28;20050;-67
2022/05/15 11:35:29;;;;;;;11.23;3.53;;;24.70;80.00;;;;;;4969218;28;20101;-66
2022/05/15 11:38:04;;;;;;;12.30;3.05;;;24.60;81.10;;;;;;4987627;28;20095;-66
2022/05/15 11:40:32;;;;;;;9.45;2.95;;;24.70;79.50;;;;;;4972431;28;20042;-65
2022/05/15 11:42:58;;;;;;;9.13;3.00;;;24.70;79.60;;;;;;4970760;28;20041;-67
2022/05/15 11:45:33;;;;;;;10.70;3.08;;;24.80;79.70;;;;;;4979111;28;20049;-67
2022/05/15 11:48:23;;;;;;;10.52;2.90;;;24.90;79.90;;;;;;4979156;28;20649;-66
2022/05/15 11:51:04;;;;;;;9.32;3.13;;;24.80;79.10;;;;;;4971830;28;20843;-66
2022/05/15 11:54:07;;;;;;;13.35;3.35;;;24.90;78.80;;;;;;4991866;28;20046;-67
2022/05/15 11:56:50;;;;;;;10.13;2.78;;;24.80;79.60;;;;;;4981543;28;20058;-65
2022/05/15 11:59:16;;;;;;;8.85;2.90;;;24.80;78.80;;;;;;4991771;28;20124;-66
2022/05/15 12:01:53;;;;;;;10.77;3.13;;;24.80;78.00;;;;;;4988980;28;20138;-65
2022/05/15 12:05:01;;;;;;;11.30;3.05;;;24.60;77.40;;;;;;4973161;28;20054;-66
2022/05/15 12:07:49;;;;;;;12.30;3.45;;;24.50;77.80;;;;;;4989014;28;20525;-66
2022/05/15 12:10:41;;;;;;;11.20;3.45;;;24.40;78.40;;;;;;4991485;28;20104;-65
2022/05/15 12:13:09;;;;;;;10.15;2.75;;;24.50;78.40;;;;;;4987630;28;20061;-67
2022/05/15 12:15:38;;;;;;;13.38;3.45;;;24.40;77.50;;;;;;4984998;28;20097;-67
2022/05/15 12:18:16;;;;;;;12.88;2.92;;;24.40;77.50;;;;;;4979382;28;20057;-66
2022/05/15 12:20:48;;;;;;;13.88;3.33;;;24.40;76.80;;;;;;4965816;28;20497;-67
2022/05/15 12:23:33;;;;;;;9.32;2.63;;;24.40;76.10;;;;;;4956496;28;20094;-66
2022/05/15 12:26:00;;;;;;;10.02;2.70;;;24.30;77.70;;;;;;4970216;28;20078;-66
2022/05/15 12:31:19;;;;;;;8.60;2.60;;;24.20;77.40;;;;;;4974972;28;20161;-67
2022/05/15 12:33:45;;;;;;;10.98;3.13;;;24.20;77.80;;;;;;5030381;28;20407;-66
2022/05/15 12:36:20;;;;;;;12.98;3.53;;;24.10;78.20;;;;;;5037088;28;20048;-66
2022/05/15 12:38:54;;;;;;;8.23;3.05;;;24.10;77.10;;;;;;5041234;28;20036;-66
2022/05/15 12:41:32;;;;;;;12.95;3.33;;;24.10;77.10;;;;;;5043079;28;20041;-67
2022/05/15 12:44:00;;;;;;;11.00;3.13;;;24.00;77.00;;;;;;5071425;28;20048;-66
2022/05/15 12:46:28;;;;;;;9.32;2.72;;;24.00;76.40;;;;;;5055130;28;20482;-66
2022/05/15 12:48:54;;;;;;;10.50;2.88;;;23.90;76.40;;;;;;5054736;28;20036;-65
2022/05/15 12:51:27;;;;;;;7.95;2.42;;;23.90;76.60;;;;;;5055664;28;20488;-65
2022/05/15 12:53:55;;;;;;;10.23;2.78;;;23.90;76.20;;;;;;5053303;28;20045;-66
2022/05/15 12:56:33;;;;;;;10.88;2.78;;;23.90;75.10;;;;;;5058819;28;20041;-65
2022/05/15 12:59:13;;;;;;;8.93;2.78;;;23.80;75.00;;;;;;5043164;28;20040;-66
2022/05/15 13:01:38;;;;;;;11.35;2.72;;;23.70;76.40;;;;;;5054523;28;20513;-66
2022/05/15 13:04:06;;;;;;;9.57;3.03;;;23.70;75.80;;;;;;5044197;28;20115;-66
2022/05/15 13:06:40;;;;;;;10.35;2.70;;;23.70;75.90;;;;;;5052716;28;20063;-65
2022/05/15 13:09:18;;;;;;;9.00;2.53;;;23.70;76.60;;;;;;5057334;28;20036;-66
2022/05/15 13:11:47;;;;;;;13.48;3.25;;;23.70;76.80;;;;;;5034870;28;20357;-66
2022/05/15 13:14:34;;;;;;;7.63;2.53;;;23.70;75.80;;;;;;5052281;28;20041;-65
2022/05/15 13:17:01;;;;;;;9.13;2.40;;;23.70;76.10;;;;;;5035436;28;20049;-66
2022/05/15 13:19:32;;;;;;;11.10;2.60;;;23.60;76.40;;;;;;5047431;28;20052;-67